createdAt,value
2018-03-22T00:01:15.207Z,4.65
2018-03-22T00:03:41.294Z,4.67
2018-03-22T00:06:07.382Z,4.71
2018-03-22T00:08:33.383Z,4.72
2018-03-22T00:10:59.433Z,4.73
2018-03-22T00:13:25.495Z,4.74
2018-03-22T00:15:51.558Z,4.77
2018-03-22T00:18:17.713Z,4.80
2018-03-22T00:20:43.911Z,4.81
2018-03-22T00:23:10.570Z,4.83
2018-03-22T00:25:37.263Z,4.83
2018-03-22T00:28:03.302Z,4.81
2018-03-22T00:30:29.301Z,4.83
2018-03-22T00:32:55.318Z,4.82
2018-03-22T00:35:21.628Z,4.80
2018-03-22T00:37:47.856Z,4.79
2018-03-22T00:40:13.901Z,4.80
2018-03-22T00:42:39.958Z,4.69
2018-03-22T00:45:06.017Z,4.60
2018-03-22T00:47:32.109Z,4.58
2018-03-22T00:49:58.113Z,4.58
2018-03-22T00:52:24.171Z,4.56
2018-03-22T00:54:50.549Z,4.55
2018-03-22T00:57:16.660Z,4.57
2018-03-22T00:59:42.725Z,4.54
2018-03-22T01:02:08.742Z,4.57
2018-03-22T01:04:34.761Z,4.59
2018-03-22T01:07:00.825Z,4.62
2018-03-22T01:09:26.874Z,4.65
2018-03-22T01:11:52.939Z,4.63
2018-03-22T01:14:18.970Z,4.62
2018-03-22T01:16:45.093Z,4.62
2018-03-22T01:19:11.142Z,4.63
2018-03-22T01:21:37.178Z,4.62
2018-03-22T01:24:03.266Z,4.64
2018-03-22T01:26:29.283Z,4.67
2018-03-22T01:28:55.311Z,4.68
2018-03-22T01:31:21.322Z,4.69
2018-03-22T01:33:47.334Z,4.67
2018-03-22T01:36:13.394Z,4.68
2018-03-22T01:38:39.438Z,4.67
2018-03-22T01:41:05.439Z,4.71
2018-03-22T01:43:31.434Z,4.73
2018-03-22T01:45:57.489Z,4.73
2018-03-22T01:48:23.517Z,4.79
2018-03-22T01:50:49.574Z,4.80
2018-03-22T01:53:15.565Z,4.85
2018-03-22T01:55:41.610Z,4.88
2018-03-22T01:58:07.678Z,4.91
2018-03-22T02:00:33.740Z,4.93
2018-03-22T02:02:59.785Z,4.94
2018-03-22T02:05:25.802Z,4.99
2018-03-22T02:07:51.866Z,4.99
2018-03-22T02:10:17.874Z,4.98
2018-03-22T02:12:43.879Z,5.00
2018-03-22T02:15:10.065Z,4.99
2018-03-22T02:17:36.201Z,4.99
2018-03-22T02:20:02.222Z,4.96
2018-03-22T02:22:28.251Z,4.93
2018-03-22T02:24:54.357Z,4.89
2018-03-22T02:27:20.429Z,4.89
2018-03-22T02:29:46.570Z,4.82
2018-03-22T02:32:12.622Z,4.80
2018-03-22T02:34:38.702Z,4.78
2018-03-22T02:37:05.039Z,4.72
2018-03-22T02:39:31.057Z,4.65
2018-03-22T02:41:57.076Z,4.64
2018-03-22T02:44:23.105Z,4.62
2018-03-22T02:46:49.141Z,4.56
2018-03-22T02:49:15.155Z,4.57
2018-03-22T02:51:41.219Z,4.59
2018-03-22T02:54:07.239Z,4.54
2018-03-22T02:56:33.416Z,4.49
2018-03-22T02:58:59.561Z,4.47
2018-03-22T03:01:25.633Z,4.45
2018-03-22T03:03:51.634Z,4.39
2018-03-22T03:06:17.688Z,4.38
2018-03-22T03:08:43.705Z,4.30
2018-03-22T03:11:09.715Z,4.23
2018-03-22T03:13:35.757Z,4.20
2018-03-22T03:16:01.803Z,4.20
2018-03-22T03:18:27.931Z,4.20
2018-03-22T03:20:54.251Z,4.16
2018-03-22T03:23:20.402Z,4.14
2018-03-22T03:25:46.483Z,4.11
2018-03-22T03:28:12.550Z,4.10
2018-03-22T03:30:38.706Z,4.09
2018-03-22T03:33:05.349Z,4.10
2018-03-22T03:35:31.372Z,4.05
2018-03-22T03:37:57.423Z,4.08
2018-03-22T03:40:23.427Z,4.04
2018-03-22T03:42:49.490Z,4.03
2018-03-22T03:45:15.477Z,4.01
2018-03-22T03:47:41.513Z,4.01
2018-03-22T03:50:07.516Z,3.98
2018-03-22T03:52:33.480Z,3.97
2018-03-22T03:54:59.446Z,3.93
2018-03-22T03:57:32.584Z,3.94
2018-03-22T03:59:58.736Z,3.94
2018-03-22T04:02:24.798Z,3.93
2018-03-22T04:04:50.786Z,3.96
2018-03-22T04:07:16.904Z,3.96
2018-03-22T04:09:42.922Z,3.96
2018-03-22T04:12:09.006Z,3.95
2018-03-22T04:14:34.983Z,3.97
2018-03-22T04:17:01.034Z,3.99
2018-03-22T04:19:27.023Z,4.00
2018-03-22T04:21:53.223Z,3.99
2018-03-22T04:24:19.250Z,3.98
2018-03-22T04:26:45.268Z,3.98
2018-03-22T04:29:11.304Z,4.01
2018-03-22T04:31:37.350Z,4.02
2018-03-22T04:34:03.418Z,3.99
2018-03-22T04:36:29.439Z,4.01
2018-03-22T04:38:55.538Z,4.01
2018-03-22T04:41:21.550Z,4.02
2018-03-22T04:43:47.571Z,4.03
2018-03-22T04:46:13.900Z,4.04
2018-03-22T04:48:39.957Z,4.04
2018-03-22T04:51:06.062Z,4.04
2018-03-22T04:53:32.062Z,4.03
2018-03-22T04:55:58.562Z,4.05
2018-03-22T04:58:24.758Z,4.03
2018-03-22T05:00:50.757Z,4.03
2018-03-22T05:03:17.150Z,4.05
2018-03-22T05:05:43.147Z,4.06
2018-03-22T05:08:09.457Z,4.05
2018-03-22T05:10:35.489Z,4.05
2018-03-22T05:13:01.639Z,4.05
2018-03-22T05:15:27.650Z,4.04
2018-03-22T05:17:53.691Z,4.05
2018-03-22T05:20:19.719Z,4.05
2018-03-22T05:22:45.730Z,4.04
2018-03-22T05:25:11.777Z,4.06
2018-03-22T05:27:37.850Z,4.06
2018-03-22T05:30:03.866Z,4.07
2018-03-22T05:32:29.882Z,4.09
2018-03-22T05:34:55.928Z,4.11
2018-03-22T05:37:21.976Z,4.10
2018-03-22T05:39:48.200Z,4.11
2018-03-22T05:42:15.099Z,4.14
2018-03-22T05:44:41.114Z,4.15
2018-03-22T05:47:07.138Z,4.15
2018-03-22T05:49:33.230Z,4.17
2018-03-22T05:51:59.220Z,4.18
2018-03-22T05:54:25.249Z,4.20
2018-03-22T05:56:51.235Z,4.23
2018-03-22T05:59:17.244Z,4.26
2018-03-22T06:01:43.278Z,4.30
2018-03-22T06:04:09.663Z,4.32
2018-03-22T06:06:35.666Z,4.34
2018-03-22T06:09:01.726Z,4.36
2018-03-22T06:11:27.767Z,4.41
2018-03-22T06:13:53.785Z,4.42
2018-03-22T06:16:19.774Z,4.44
2018-03-22T06:18:45.890Z,4.47
2018-03-22T06:21:11.964Z,4.51
2018-03-22T06:23:38.594Z,4.52
2018-03-22T06:26:04.754Z,4.53
2018-03-22T06:28:30.793Z,4.55
2018-03-22T06:30:56.841Z,4.56
2018-03-22T06:33:22.891Z,4.58
2018-03-22T06:35:48.889Z,4.60
2018-03-22T06:38:14.892Z,4.61
2018-03-22T06:40:41.186Z,4.60
2018-03-22T06:43:07.182Z,4.62
2018-03-22T06:45:33.181Z,4.63
2018-03-22T06:47:59.175Z,4.64
2018-03-22T06:50:25.173Z,4.67
2018-03-22T06:52:51.250Z,4.67
2018-03-22T06:55:17.257Z,4.73
2018-03-22T06:57:43.244Z,4.76
2018-03-22T07:00:09.246Z,4.74
2018-03-22T07:02:35.249Z,4.75
2018-03-22T07:05:01.238Z,4.77
2018-03-22T07:07:27.243Z,4.77
2018-03-22T07:09:53.237Z,4.79
2018-03-22T07:12:19.233Z,4.79
2018-03-22T07:14:45.559Z,4.81
2018-03-22T07:17:11.585Z,4.82
2018-03-22T07:19:37.586Z,4.83
2018-03-22T07:22:03.600Z,4.84
2018-03-22T07:24:29.603Z,4.87
2018-03-22T07:26:55.626Z,4.85
2018-03-22T07:29:21.658Z,4.87
2018-03-22T07:31:47.700Z,4.90
2018-03-22T07:34:13.688Z,4.90
2018-03-22T07:36:39.695Z,4.93
2018-03-22T07:39:05.749Z,4.91
2018-03-22T07:41:31.750Z,4.96
2018-03-22T07:44:03.803Z,4.98
2018-03-22T07:46:29.811Z,4.98
2018-03-22T07:48:55.898Z,4.98
2018-03-22T07:51:21.948Z,5.03
2018-03-22T07:53:47.958Z,5.02
2018-03-22T07:56:14.349Z,5.03
2018-03-22T07:58:40.454Z,5.08
2018-03-22T08:01:06.499Z,5.08
2018-03-22T08:03:32.900Z,5.14
2018-03-22T08:05:58.954Z,5.15
2018-03-22T08:08:24.974Z,5.20
2018-03-22T08:10:50.971Z,5.28
2018-03-22T08:13:17.076Z,5.29
2018-03-22T08:15:43.109Z,5.34
2018-03-22T08:18:09.166Z,5.35
2018-03-22T08:20:35.205Z,5.40
2018-03-22T08:23:01.142Z,5.33
2018-03-22T08:25:27.224Z,5.43
2018-03-22T08:27:53.218Z,5.46
2018-03-22T08:30:19.233Z,5.47
2018-03-22T08:32:45.243Z,5.50
2018-03-22T08:35:11.250Z,5.49
2018-03-22T08:37:37.246Z,5.42
2018-03-22T08:40:03.249Z,5.49
2018-03-22T08:42:29.242Z,5.48
2018-03-22T08:44:55.234Z,5.50
2018-03-22T08:47:21.290Z,5.57
2018-03-22T08:49:47.343Z,5.62
2018-03-22T08:52:13.359Z,5.56
2018-03-22T08:54:39.370Z,5.63
2018-03-22T08:57:05.383Z,5.66
2018-03-22T08:59:31.388Z,5.69
2018-03-22T09:01:57.392Z,5.65
2018-03-22T09:04:23.404Z,5.75
2018-03-22T09:06:49.538Z,5.75
2018-03-22T09:09:15.576Z,5.74
2018-03-22T09:11:41.585Z,5.77
2018-03-22T09:14:07.629Z,5.82
2018-03-22T09:16:33.700Z,5.90
2018-03-22T09:18:59.827Z,5.93
2018-03-22T09:21:25.827Z,5.97
2018-03-22T09:23:51.858Z,6.01
2018-03-22T09:26:17.930Z,5.94
2018-03-22T09:28:44.934Z,6.03
2018-03-22T09:31:10.956Z,6.04
2018-03-22T09:33:37.372Z,6.15
2018-03-22T09:36:03.411Z,6.28
2018-03-22T09:38:29.426Z,6.22
2018-03-22T09:40:55.469Z,6.27
2018-03-22T09:43:21.492Z,6.38
2018-03-22T09:45:47.498Z,6.36
2018-03-22T09:48:13.554Z,6.35
2018-03-22T09:50:39.527Z,6.38
2018-03-22T09:53:05.707Z,6.43
2018-03-22T09:55:31.712Z,6.62
2018-03-22T09:57:57.738Z,6.68
2018-03-22T10:00:23.808Z,6.71
2018-03-22T10:02:49.907Z,7.00
2018-03-22T10:05:15.923Z,6.97
2018-03-22T10:07:41.970Z,7.17
2018-03-22T10:10:08.032Z,7.41
2018-03-22T10:12:34.619Z,7.31
2018-03-22T10:15:00.712Z,7.35
2018-03-22T10:17:26.793Z,7.39
2018-03-22T10:19:52.840Z,7.16
2018-03-22T10:22:19.014Z,7.07
2018-03-22T10:24:45.014Z,7.30
2018-03-22T10:27:11.131Z,7.36
2018-03-22T10:29:37.144Z,7.52
2018-03-22T10:32:03.203Z,7.61
2018-03-22T10:34:29.198Z,7.56
2018-03-22T10:36:55.318Z,7.31
2018-03-22T10:39:21.279Z,7.47
2018-03-22T10:41:47.293Z,7.43
2018-03-22T10:44:13.364Z,7.33
2018-03-22T10:46:39.412Z,7.28
2018-03-22T10:49:06.034Z,7.68
2018-03-22T10:51:32.190Z,7.60
2018-03-22T10:53:58.240Z,7.51
2018-03-22T10:56:24.250Z,7.65
2018-03-22T10:58:50.339Z,7.70
2018-03-22T11:01:22.631Z,7.60
2018-03-22T11:03:53.185Z,7.48
2018-03-22T11:06:19.236Z,7.43
2018-03-22T11:08:45.271Z,7.58
2018-03-22T11:11:11.331Z,7.56
2018-03-22T11:13:37.343Z,7.58
2018-03-22T11:16:03.366Z,7.71
2018-03-22T11:18:29.405Z,7.99
2018-03-22T11:20:55.394Z,8.25
2018-03-22T11:23:21.422Z,8.35
2018-03-22T11:25:47.444Z,8.50
2018-03-22T11:28:13.440Z,8.28
2018-03-22T11:30:39.405Z,8.48
2018-03-22T11:33:05.394Z,8.45
2018-03-22T11:35:31.416Z,8.70
2018-03-22T11:37:57.474Z,8.95
2018-03-22T11:40:23.482Z,10.41
2018-03-22T11:42:49.506Z,11.42
2018-03-22T11:45:15.559Z,11.69
2018-03-22T11:47:41.616Z,11.42
2018-03-22T11:50:07.659Z,11.63
2018-03-22T11:52:33.696Z,11.47
2018-03-22T11:54:59.723Z,10.54
2018-03-22T11:57:25.713Z,10.52
2018-03-22T11:59:51.779Z,10.80
2018-03-22T12:02:17.802Z,11.15
2018-03-22T12:04:43.980Z,11.74
2018-03-22T12:07:10.011Z,11.36
2018-03-22T12:09:36.037Z,13.44
2018-03-22T12:12:02.105Z,13.02
2018-03-22T12:14:28.174Z,13.57
2018-03-22T12:16:54.189Z,13.37
2018-03-22T12:19:20.193Z,14.26
2018-03-22T12:21:46.869Z,14.26
2018-03-22T12:24:12.879Z,14.04
2018-03-22T12:26:38.983Z,12.30
2018-03-22T12:29:05.015Z,14.23
2018-03-22T12:31:31.031Z,13.15
2018-03-22T12:33:57.062Z,15.16
2018-03-22T12:36:23.153Z,15.68
2018-03-22T12:38:49.195Z,14.74
2018-03-22T12:41:15.193Z,14.32
2018-03-22T12:43:41.309Z,13.79
2018-03-22T12:46:07.331Z,14.06
2018-03-22T12:48:33.395Z,16.81
2018-03-22T12:50:59.439Z,13.73
2018-03-22T12:53:25.462Z,12.29
2018-03-22T12:55:51.503Z,11.25
2018-03-22T12:58:17.509Z,10.91
2018-03-22T13:00:43.525Z,10.76
2018-03-22T13:03:09.530Z,10.29
2018-03-22T13:05:35.554Z,10.05
2018-03-22T13:08:01.697Z,9.96
2018-03-22T13:10:28.310Z,9.69
2018-03-22T13:12:54.397Z,9.52
2018-03-22T13:15:20.434Z,9.23
2018-03-22T13:17:46.470Z,9.50
2018-03-22T13:20:12.574Z,9.76
2018-03-22T13:22:38.702Z,9.74
2018-03-22T13:25:04.748Z,10.15
2018-03-22T13:27:30.761Z,9.60
2018-03-22T13:29:56.947Z,9.39
2018-03-22T13:32:22.953Z,9.18
2018-03-22T13:34:48.972Z,9.17
2018-03-22T13:37:14.995Z,9.28
2018-03-22T13:39:41.100Z,9.21
2018-03-22T13:42:07.128Z,8.75
2018-03-22T13:44:33.202Z,8.77
2018-03-22T13:46:59.211Z,8.48
2018-03-22T13:49:25.211Z,8.27
2018-03-22T13:51:51.219Z,8.53
2018-03-22T13:54:17.273Z,8.63
2018-03-22T13:56:43.310Z,8.51
2018-03-22T13:59:09.372Z,8.46
2018-03-22T14:01:35.416Z,8.17
2018-03-22T14:04:01.442Z,8.00
2018-03-22T14:06:27.473Z,7.94
2018-03-22T14:08:53.516Z,7.88
2018-03-22T14:11:19.584Z,7.80
2018-03-22T14:13:45.615Z,7.85
2018-03-22T14:16:11.622Z,8.01
2018-03-22T14:18:37.626Z,8.07
2018-03-22T14:21:03.690Z,7.97
2018-03-22T14:23:29.731Z,7.98
2018-03-22T14:25:55.729Z,7.90
2018-03-22T14:28:21.777Z,8.08
2018-03-22T14:30:47.912Z,8.08
2018-03-22T14:33:13.965Z,8.16
2018-03-22T14:35:39.963Z,8.32
2018-03-22T14:38:06.124Z,8.55
2018-03-22T14:40:32.685Z,8.29
2018-03-22T14:42:58.817Z,8.33
2018-03-22T14:45:24.918Z,7.95
2018-03-22T14:47:50.953Z,8.13
2018-03-22T14:50:17.015Z,8.00
2018-03-22T14:52:43.121Z,8.04
2018-03-22T14:55:09.129Z,7.97
2018-03-22T14:57:35.122Z,8.07
2018-03-22T15:00:01.090Z,7.93
2018-03-22T15:02:27.142Z,8.04
2018-03-22T15:04:53.150Z,7.91
2018-03-22T15:07:19.199Z,7.87
2018-03-22T15:09:45.325Z,7.63
2018-03-22T15:12:11.391Z,7.70
2018-03-22T15:14:37.409Z,7.75
2018-03-22T15:17:03.435Z,7.87
2018-03-22T15:19:29.451Z,7.55
2018-03-22T15:21:55.661Z,7.73
2018-03-22T15:24:21.699Z,7.88
2018-03-22T15:26:47.744Z,7.84
2018-03-22T15:29:13.802Z,7.82
2018-03-22T15:31:39.806Z,7.92
2018-03-22T15:34:05.839Z,8.08
2018-03-22T15:36:31.910Z,7.97
2018-03-22T15:38:58.030Z,7.92
2018-03-22T15:41:24.086Z,8.04
2018-03-22T15:43:50.872Z,7.97
2018-03-22T15:46:16.926Z,7.93
2018-03-22T15:48:43.075Z,7.88
2018-03-22T15:51:09.094Z,7.97
2018-03-22T15:53:35.200Z,7.93
2018-03-22T15:56:01.223Z,7.91
2018-03-22T15:58:27.309Z,7.80
2018-03-22T16:00:53.347Z,7.64
2018-03-22T16:03:19.348Z,7.71
2018-03-22T16:05:45.384Z,7.71
2018-03-22T16:08:11.419Z,7.67
2018-03-22T16:10:37.441Z,7.64
2018-03-22T16:13:03.447Z,7.62
2018-03-22T16:15:29.532Z,7.49
2018-03-22T16:17:55.575Z,7.51
2018-03-22T16:20:21.597Z,7.55
2018-03-22T16:22:47.680Z,7.62
2018-03-22T16:25:13.739Z,7.54
2018-03-22T16:27:39.751Z,7.68
2018-03-22T16:30:05.797Z,7.76
2018-03-22T16:32:32.117Z,7.72
2018-03-22T16:34:58.278Z,7.45
2018-03-22T16:37:24.351Z,7.44
2018-03-22T16:39:50.391Z,7.39
2018-03-22T16:42:17.010Z,7.28
2018-03-22T16:44:43.074Z,7.29
2018-03-22T16:47:09.131Z,7.15
2018-03-22T16:49:35.978Z,7.27
2018-03-22T16:52:02.399Z,7.23
2018-03-22T16:54:28.391Z,7.16
2018-03-22T16:56:54.391Z,7.16
2018-03-22T16:59:20.627Z,7.01
2018-03-22T17:01:47.188Z,7.08
2018-03-22T17:04:13.213Z,7.06
2018-03-22T17:06:39.326Z,7.02
2018-03-22T17:09:05.356Z,7.00
2018-03-22T17:11:31.346Z,6.90
2018-03-22T17:13:57.353Z,6.84
2018-03-22T17:16:23.372Z,6.80
2018-03-22T17:18:49.372Z,6.75
2018-03-22T17:21:15.406Z,6.64
2018-03-22T17:23:41.486Z,6.66
2018-03-22T17:26:07.494Z,6.64
2018-03-22T17:28:33.546Z,6.58
2018-03-22T17:30:59.569Z,6.52
2018-03-22T17:33:25.643Z,6.49
2018-03-22T17:35:51.825Z,6.44
2018-03-22T17:38:17.984Z,6.45
2018-03-22T17:40:43.991Z,6.42
2018-03-22T17:43:10.046Z,6.39
2018-03-22T17:45:36.117Z,6.41
2018-03-22T17:48:02.218Z,6.38
2018-03-22T17:50:28.233Z,6.37
2018-03-22T17:52:54.262Z,6.34
2018-03-22T17:55:20.336Z,6.29
2018-03-22T17:57:46.446Z,6.26
2018-03-22T18:00:12.518Z,6.20
2018-03-22T18:02:38.590Z,6.20
2018-03-22T18:05:05.273Z,6.19
2018-03-22T18:07:31.302Z,6.17
2018-03-22T18:09:57.370Z,6.18
2018-03-22T18:12:23.445Z,6.18
2018-03-22T18:14:49.467Z,6.15
2018-03-22T18:17:15.518Z,6.13
2018-03-22T18:19:41.529Z,6.13
2018-03-22T18:22:07.590Z,6.10
2018-03-22T18:24:33.582Z,6.09
2018-03-22T18:26:59.602Z,6.08
2018-03-22T18:29:25.614Z,6.01
2018-03-22T18:31:51.628Z,6.02
2018-03-22T18:34:17.667Z,6.05
2018-03-22T18:36:43.718Z,6.03
2018-03-22T18:39:09.805Z,6.03
2018-03-22T18:41:35.829Z,6.03
2018-03-22T18:44:01.846Z,6.02
2018-03-22T18:46:27.850Z,6.01
2018-03-22T18:48:53.872Z,6.01
2018-03-22T18:51:20.018Z,6.01
2018-03-22T18:53:46.036Z,6.01
2018-03-22T18:56:12.038Z,5.99
2018-03-22T18:58:38.098Z,5.99
2018-03-22T19:01:04.223Z,5.97
2018-03-22T19:03:30.268Z,5.97
2018-03-22T19:05:56.369Z,5.98
2018-03-22T19:08:22.422Z,5.98
2018-03-22T19:10:48.540Z,6.00
2018-03-22T19:13:15.397Z,6.01
2018-03-22T19:15:41.462Z,6.00
2018-03-22T19:18:07.545Z,6.02
2018-03-22T19:20:33.549Z,6.00
2018-03-22T19:22:59.578Z,5.98
2018-03-22T19:25:25.596Z,5.98
2018-03-22T19:27:51.672Z,5.94
2018-03-22T19:30:17.710Z,5.93
2018-03-22T19:32:43.719Z,5.95
2018-03-22T19:35:09.759Z,5.95
2018-03-22T19:37:35.784Z,5.89
2018-03-22T19:40:01.804Z,5.88
2018-03-22T19:42:27.861Z,5.89
2018-03-22T19:44:53.868Z,5.91
2018-03-22T19:47:19.976Z,5.92
2018-03-22T19:49:45.978Z,5.93
2018-03-22T19:52:12.107Z,5.91
2018-03-22T19:54:38.158Z,5.89
2018-03-22T19:57:04.344Z,5.83
2018-03-22T19:59:30.463Z,5.83
2018-03-22T20:01:56.611Z,5.81
2018-03-22T20:04:22.664Z,5.85
2018-03-22T20:06:48.846Z,5.84
2018-03-22T20:09:14.996Z,5.80
2018-03-22T20:11:41.078Z,5.83
2018-03-22T20:14:07.286Z,5.81
2018-03-22T20:16:33.335Z,5.80
2018-03-22T20:18:59.340Z,5.80
2018-03-22T20:21:25.345Z,5.81
2018-03-22T20:23:51.417Z,5.79
2018-03-22T20:26:17.503Z,5.82
2018-03-22T20:28:44.174Z,5.83
2018-03-22T20:31:10.359Z,5.83
2018-03-22T20:33:36.387Z,5.80
2018-03-22T20:36:02.528Z,5.80
2018-03-22T20:38:28.652Z,5.82
2018-03-22T20:40:54.739Z,5.81
2018-03-22T20:43:20.856Z,5.79
2018-03-22T20:45:46.938Z,5.80
2018-03-22T20:48:12.962Z,5.79
2018-03-22T20:50:39.013Z,5.83
2018-03-22T20:53:05.037Z,5.84
2018-03-22T20:55:31.014Z,5.84
2018-03-22T20:57:57.162Z,5.85
2018-03-22T21:00:23.278Z,5.83
2018-03-22T21:02:49.337Z,5.86
2018-03-22T21:05:15.368Z,5.88
2018-03-22T21:07:41.451Z,5.86
2018-03-22T21:10:07.474Z,5.85
2018-03-22T21:12:33.534Z,5.85
2018-03-22T21:14:59.822Z,5.85
2018-03-22T21:17:25.877Z,5.83
2018-03-22T21:19:51.963Z,5.83
2018-03-22T21:22:18.031Z,5.82
2018-03-22T21:24:44.066Z,5.88
2018-03-22T21:27:10.070Z,5.86
2018-03-22T21:29:36.818Z,5.84
2018-03-22T21:32:02.952Z,5.84
2018-03-22T21:34:29.002Z,5.87
2018-03-22T21:36:55.477Z,5.85
2018-03-22T21:39:21.597Z,5.86
2018-03-22T21:44:42.298Z,5.83
2018-03-22T21:47:20.759Z,5.83
2018-03-22T21:49:46.788Z,5.83
2018-03-22T21:52:25.762Z,5.83
2018-03-22T21:54:51.911Z,5.82
2018-03-22T21:57:17.971Z,5.81
2018-03-22T21:59:43.998Z,5.81
2018-03-22T22:02:10.120Z,5.76
2018-03-22T22:04:36.146Z,5.77
2018-03-22T22:07:02.171Z,5.75
2018-03-22T22:09:28.202Z,5.75
2018-03-22T22:11:54.229Z,5.73
2018-03-22T22:14:20.254Z,5.75
2018-03-22T22:16:46.284Z,5.71
2018-03-22T22:19:13.199Z,5.72
2018-03-22T22:21:39.211Z,5.70
2018-03-22T22:24:05.252Z,5.72
2018-03-22T22:26:31.345Z,5.67
2018-03-22T22:28:57.437Z,5.65
2018-03-22T22:31:23.442Z,5.63
2018-03-22T22:33:49.486Z,5.62
2018-03-22T22:36:15.538Z,5.59
2018-03-22T22:38:41.593Z,5.57
2018-03-22T22:41:07.616Z,5.55
2018-03-22T22:43:33.635Z,5.53
2018-03-22T22:45:59.706Z,5.51
2018-03-22T22:48:25.702Z,5.51
2018-03-22T22:50:51.817Z,5.53
2018-03-22T22:53:17.826Z,5.52
2018-03-22T22:55:43.868Z,5.49
2018-03-22T22:58:09.985Z,5.50
2018-03-22T23:00:36.018Z,5.49
2018-03-22T23:03:02.054Z,5.49
2018-03-22T23:05:28.107Z,5.46
2018-03-22T23:07:54.178Z,5.50
2018-03-22T23:10:20.182Z,5.48
2018-03-22T23:12:46.180Z,5.49
2018-03-22T23:15:12.798Z,5.50
2018-03-22T23:17:38.891Z,5.48
2018-03-22T23:20:04.905Z,5.44
2018-03-22T23:22:30.927Z,5.48
2018-03-22T23:24:56.976Z,5.45
2018-03-22T23:27:23.087Z,5.47
2018-03-22T23:29:49.241Z,5.45
2018-03-22T23:32:15.225Z,5.48
2018-03-22T23:34:41.307Z,5.47
2018-03-22T23:37:07.290Z,5.46
2018-03-22T23:39:33.335Z,5.47
2018-03-22T23:41:59.395Z,5.45
2018-03-22T23:44:25.425Z,5.42
2018-03-22T23:46:51.463Z,5.45
2018-03-22T23:49:17.496Z,5.41
2018-03-22T23:51:43.507Z,5.40
2018-03-22T23:54:09.511Z,5.39
2018-03-22T23:56:35.581Z,5.39
2018-03-22T23:59:01.587Z,5.37
